Casper, Wyoming
Current Conditions -  °F | °C
As of 2:53 PM on Thursday 18 Dec 2014 (Local Time) from KCPR Reporting Station
Clear Clear  
Wind Chill: 13°   Ceiling: Unl
Heat Index: 27°   Visibility: 10mi
Dew Point: 18°   Wind: 21mph
Humidity: 69%   Direction: 220°SW
Pressure: 30.02"   Gusts: 25mph
Location:  42.85°N, 106.32°W
Report Text: KCPR 182153Z 22018G22KT 10SM CLR M03/M08 A3002 RMK AO2 PK WND 21026/2118 SLP202 T10281078
Loading
Personal Weather Stations






























Interactive Weather Map New forecast layout! Learn more

10-Day Weather Forecast

Advertisements
Track Severe Weather on mobile